N172ZB KCRP-KHOU
Flight info
| Callsign | N172ZB |
|---|---|
| Flight time | N/A |
| Altitude | 6000 |
| Route | ATHIS CARTI LEMIG SAT PINCH HOUKM |
| Aircraft | C172/L-VGD/C |
Departure
| Time | 2026-04-25 20:50 |
|---|---|
| Airport | Corpus Christi International Airport (KCRP) |
Arrival
| Time | N/A |
|---|---|
| Airport | William P. Hobby Airport (KHOU) |
| Time | Latitude | Longitude | Altitude | Speed | Heading |
|---|---|---|---|---|---|
| 2026-04-25 20:35 | 27.77630 | -97.50607 | 49 ft | 0 kts | 225° |
| 2026-04-25 20:43 | 27.77626 | -97.50610 | 49 ft | 4 kts | 194° |
| 2026-04-25 20:44 | 27.77596 | -97.50588 | 49 ft | 8 kts | 135° |
| 2026-04-25 20:44 | 27.77551 | -97.50544 | 48 ft | 8 kts | 165° |
| 2026-04-25 20:44 | 27.77505 | -97.50588 | 47 ft | 12 kts | 242° |
| 2026-04-25 20:44 | 27.77484 | -97.50694 | 46 ft | 15 kts | 259° |
| 2026-04-25 20:45 | 27.77471 | -97.50813 | 48 ft | 15 kts | 289° |
| 2026-04-25 20:45 | 27.77540 | -97.50896 | 47 ft | 14 kts | 315° |
| 2026-04-25 20:45 | 27.77612 | -97.50975 | 45 ft | 14 kts | 315° |
| 2026-04-25 20:45 | 27.77680 | -97.51049 | 45 ft | 13 kts | 316° |
| 2026-04-25 20:46 | 27.77741 | -97.51117 | 44 ft | 12 kts | 315° |
| 2026-04-25 20:46 | 27.77801 | -97.51185 | 43 ft | 12 kts | 314° |
| 2026-04-25 20:46 | 27.77859 | -97.51248 | 43 ft | 11 kts | 326° |
| 2026-04-25 20:46 | 27.77904 | -97.51282 | 45 ft | 0 kts | 301° |
| 2026-04-25 20:47 | 27.77908 | -97.51300 | 45 ft | 7 kts | 287° |
| 2026-04-25 20:48 | 27.77927 | -97.51350 | 47 ft | 6 kts | 238° |
| 2026-04-25 20:48 | 27.77913 | -97.51367 | 46 ft | 0 kts | 221° |
| 2026-04-25 20:48 | 27.77888 | -97.51377 | 44 ft | 8 kts | 183° |
| 2026-04-25 20:49 | 27.77830 | -97.51364 | 44 ft | 13 kts | 174° |
| 2026-04-25 20:49 | 27.77727 | -97.51344 | 40 ft | 14 kts | 167° |
| 2026-04-25 20:49 | 27.77627 | -97.51252 | 42 ft | 36 kts | 136° |
| 2026-04-25 20:49 | 27.77355 | -97.50952 | 99 ft | 66 kts | 137° |
| 2026-04-25 20:50 | 27.77011 | -97.50587 | 314 ft | 71 kts | 135° |
| 2026-04-25 20:50 | 27.76731 | -97.50161 | 598 ft | 71 kts | 107° |
| 2026-04-25 20:50 | 27.76981 | -97.49618 | 830 ft | 84 kts | 64° |
| 2026-04-25 20:50 | 27.77333 | -97.49124 | 1150 ft | 77 kts | 64° |
| 2026-04-25 20:51 | 27.77676 | -97.48657 | 1431 ft | 77 kts | 62° |
| 2026-04-25 20:51 | 27.78016 | -97.48162 | 1646 ft | 83 kts | 62° |
| 2026-04-25 20:51 | 27.78348 | -97.47639 | 1878 ft | 81 kts | 61° |
| 2026-04-25 20:51 | 27.78671 | -97.47115 | 2070 ft | 82 kts | 63° |
| 2026-04-25 20:52 | 27.79101 | -97.46677 | 2238 ft | 90 kts | 26° |
| 2026-04-25 20:52 | 27.79528 | -97.46612 | 2339 ft | 98 kts | 358° |
| 2026-04-25 20:52 | 27.80244 | -97.47142 | 2627 ft | 93 kts | 308° |
| 2026-04-25 20:52 | 27.80677 | -97.47700 | 2760 ft | 98 kts | 308° |
| 2026-04-25 20:53 | 27.81118 | -97.48300 | 2896 ft | 102 kts | 308° |
| 2026-04-25 20:53 | 27.81569 | -97.48906 | 3096 ft | 100 kts | 306° |
| 2026-04-25 20:53 | 27.82023 | -97.49523 | 3236 ft | 104 kts | 306° |
| 2026-04-25 20:53 | 27.82485 | -97.50144 | 3422 ft | 101 kts | 307° |
| 2026-04-25 20:54 | 27.82939 | -97.50757 | 3588 ft | 101 kts | 308° |
| 2026-04-25 20:54 | 27.83383 | -97.51358 | 3778 ft | 99 kts | 306° |
| 2026-04-25 20:54 | 27.83824 | -97.51952 | 3979 ft | 97 kts | 307° |
| 2026-04-25 20:54 | 27.84257 | -97.52536 | 4167 ft | 96 kts | 308° |
| 2026-04-25 20:55 | 27.84684 | -97.53113 | 4348 ft | 96 kts | 308° |
| 2026-04-25 20:55 | 27.85114 | -97.53693 | 4500 ft | 96 kts | 308° |
| 2026-04-25 20:55 | 27.85539 | -97.54270 | 4665 ft | 96 kts | 308° |
| 2026-04-25 20:55 | 27.85962 | -97.54843 | 4794 ft | 97 kts | 308° |
| 2026-04-25 20:56 | 27.86398 | -97.55435 | 4912 ft | 98 kts | 308° |
| 2026-04-25 20:56 | 27.86837 | -97.56026 | 5058 ft | 98 kts | 308° |
| 2026-04-25 20:56 | 27.87272 | -97.56613 | 5207 ft | 97 kts | 308° |